Latest Coastal Weather Observations for St Helens

IDT60701

Issued at 10:12 pm EST Sunday 25 September 2016 (issued every 10 minutes, with the page automatically refreshed every 10 minutes)

About coastal observations | Map of coastal stations | Coastal observations for TAS | Marine services | Other Formats
Station Details ID: 092120 Name: ST HELENS AERODROME Lat: -41.34 Lon: 148.28 Height: 48.0 m
Data from the previous 72 hours. | See also: Recent months at St Helens
Date/Time
EST
Temp
°C
Wind Pressure Rain since
9am
mm
Weather Cloud Vis
km
Sea
Height
m
Swell
Dir  Spd
kts
Gust
kts
hPa Trend Height
m
Period
s
Dir
25/10:00pm 9.8 NW 4 5 1010.6 - 1.6 - Partly cloudy 10 - - - -
25/09:30pm 9.9 W 1 4 1010.4 - 1.6 - Partly cloudy 10 - - - -
25/09:00pm 10.4 CALM 0 0 1010.2 - 1.6 - Cloudy 10 - - - -
25/08:30pm 10.8 CALM 0 0 1009.9 - 1.6 - Partly cloudy 10 - - - -
25/08:00pm 10.6 W 2 5 1009.6 - 1.6 - Partly cloudy 10 - - - -
25/07:30pm 10.6 SE 1 4 1009.0 - 1.6 - Partly cloudy 10 - - - -
25/07:00pm 10.9 E 2 5 1008.5 - 1.6 - Partly cloudy 10 - - - -
25/06:30pm 11.1 SSE 3 9 1008.0 - 1.6 - Partly cloudy 7 - - - -
25/06:00pm 11.8 SE 3 6 1007.5 - 0.6 - Cloudy 10 - - - -
25/05:30pm 12.0 SSE 3 6 1006.9 - 0.6 - Partly cloudy 10 - - - -
25/05:00pm 12.3 SE 5 9 1006.5 - 0.6 - Partly cloudy 10 - - - -
25/04:30pm 12.5 SE 5 8 1006.1 - 0.6 - Partly cloudy 10 - - - -
25/04:00pm 12.6 SSE 5 7 1005.7 - 0.6 - Partly cloudy 10 - - - -
25/03:30pm 12.5 S 6 9 1005.3 - 0.6 - Partly cloudy 10 - - - -
25/03:00pm 12.0 S 7 11 1005.2 - 0.6 - Cloudy 10 - - - -
25/02:30pm 12.1 S 5 8 1005.1 - 0.6 - Partly cloudy 10 - - - -
25/02:00pm 12.0 SE 6 11 1004.6 - 0.4 - Partly cloudy 10 - - - -
25/01:30pm 13.0 SSE 6 10 1004.2 - 0.0 - Partly cloudy 10 - - - -
25/01:00pm 13.0 SSE 8 14 1003.9 - 0.0 - Partly cloudy 10 - - - -
25/12:30pm 13.1 SSE 9 17 1003.4 - 0.0 - Partly cloudy 10 - - - -
25/12:00pm 14.7 SSE 11 23 1003.2 - 0.0 - Cloudy 10 - - - -
25/11:30am 16.9 ENE 7 10 1002.5 - 0.0 - Partly cloudy 10 - - - -
25/11:00am 17.9 W 4 7 1002.6 - 0.0 - Partly cloudy 10 - - - -
25/10:30am 16.9 W 3 6 1002.5 - 0.0 - Partly cloudy 10 - - - -
25/10:00am 16.4 N 4 7 1002.6 - 0.0 - Partly cloudy - - - - -
25/09:30am 15.9 N 4 6 1002.8 - 0.0 - Partly cloudy 10 - - - -
25/09:00am 14.6 NNW 2 5 1002.8 - 11.6 Fine Partly cloudy 30 - - - -
25/08:30am 13.2 N 4 6 1002.6 - 11.6 - Partly cloudy 10 - - - -
25/08:00am 12.3 NNE 2 5 1002.4 - 11.6 - Partly cloudy 10 - - - -
25/07:30am 11.4 ENE 1 4 1002.5 - 11.6 - Cloudy 10 - - - -
25/07:00am 10.4 CALM 0 0 1002.4 - 11.6 - Partly cloudy 10 - - - -
25/06:30am 9.5 CALM 0 3 1002.2 - 11.6 - - 10 - - - -
25/06:00am 9.3 NNE 1 4 1002.4 - 11.6 - Mostly clear 9 - - - -
25/05:30am 9.7 CALM 0 3 1002.1 - 11.6 - - 10 - - - -
25/05:00am 9.9 NNW 3 5 1002.1 - 11.6 - - 10 - - - -
25/04:30am 10.1 WNW 6 7 1001.8 - 11.6 - - 10 - - - -
25/04:00am 10.2 W 5 9 1002.1 - 11.6 - - 10 - - - -
25/03:30am 10.0 WNW 4 6 1002.3 - 11.6 - Partly cloudy 10 - - - -
25/03:01am 10.1 NW 5 7 1002.6 - 11.6 - Partly cloudy 10 - - - -
25/03:00am 10.0 NW 5 7 1002.7 - 11.6 - Mostly cloudy 10 - - - -
25/02:58am 10.1 NW 5 7 1002.7 - 11.6 - Partly cloudy 10 - - - -
25/02:40am 10.0 W 4 6 1002.8 - 11.6 - Partly cloudy 5 - - - -
25/02:30am 10.1 W 4 7 1003.0 - 11.6 - Partly cloudy 10 - - - -
25/02:11am 10.2 WNW 5 7 1003.1 - 11.6 - Partly cloudy 10 - - - -
25/02:00am 10.3 W 3 6 1003.3 - 11.6 - Partly cloudy 3 - - - -
25/01:50am 10.3 W 4 8 1003.5 - 11.6 - Cloudy 1 - - - -
25/01:30am 10.5 W 4 6 1003.6 - 11.6 - Cloudy 0.1 - - - -
25/01:00am 10.9 W 3 5 1003.8 - 11.6 - Cloudy 0.1 - - - -
25/12:40am 11.1 W 5 8 1004.0 - 11.6 - Cloudy - - - - -
25/12:30am 11.2 WSW 3 6 1004.1 - 11.6 - Partly cloudy 0.8 - - - -
25/12:25am 11.3 W 3 6 1004.1 - 11.6 - Partly cloudy 3 - - - -
25/12:17am 11.3 WNW 4 7 1004.1 - 11.6 - Partly cloudy 10 - - - -
25/12:13am 11.3 W 4 7 1004.1 - 11.6 - Partly cloudy 10 - - - -
25/12:00am 11.5 WNW 3 6 1004.5 - 11.6 - Mostly clear 10 - - - -
 
Date/Time
EST
Temp
°C
Wind Pressure Rain since
9am
mm
Weather Cloud Vis
km
Sea
Height
m
Swell
Dir  Spd
kts
Gust
kts
hPa Trend Height
m
Period
s
Dir
24/11:30pm 12.0 NNW 2 5 1004.7 - 11.6 - Partly cloudy - - - - -
24/11:20pm 12.1 N 3 5 1004.8 - 11.6 - Partly cloudy 5 - - - -
24/11:00pm 12.5 N 5 8 1005.0 - 11.6 - Partly cloudy 9 - - - -
24/10:30pm 12.8 N 4 5 1005.3 - 11.6 - Cloudy 10 - - - -
24/10:00pm 12.8 N 4 5 1005.6 - 11.6 - Cloudy 10 - - - -
24/09:30pm 12.9 W 1 4 1005.9 - 11.6 - Partly cloudy 10 - - - -
24/09:08pm 13.1 W 2 5 1006.2 - 11.6 - Partly cloudy 10 - - - -
24/09:06pm 13.1 WNW 3 6 1006.1 - 11.6 - Partly cloudy 10 - - - -
24/09:00pm 13.2 N 5 7 1006.3 - 11.6 - Cloudy 6 - - - -
24/08:53pm 13.2 N 4 7 1006.2 - 11.6 - Partly cloudy 5 - - - -
24/08:52pm 13.2 N 4 7 1006.2 - 11.6 - Partly cloudy 5 - - - -
24/08:30pm 13.3 NNE 5 7 1006.3 - 11.4 - Partly cloudy 10 - - - -
24/08:00pm 13.4 NNE 7 9 1006.4 - 11.4 - Partly cloudy 10 - - - -
24/07:34pm 13.4 NNE 6 8 1006.4 - 11.4 - Partly cloudy 10 - - - -
24/07:30pm 13.3 NNE 6 7 1006.4 - 11.4 - Partly cloudy 10 - - - -
24/07:00pm 13.5 N 7 11 1006.7 - 8.8 - Partly cloudy 9 - - - -
24/06:51pm 13.4 N 6 9 1006.6 - 8.6 - Partly cloudy 10 - - - -
24/06:30pm 13.3 N 7 10 1006.4 - 8.4 - Partly cloudy 10 - - - -
24/06:00pm 13.4 N 7 11 1006.7 - 8.4 - Mostly cloudy 10 - - - -
24/05:33pm 13.5 NNE 10 14 1006.5 - 8.4 - Partly cloudy 10 - - - -
24/05:30pm 13.5 NNE 10 14 1006.5 - 8.4 - Partly cloudy 10 - - - -
24/05:28pm 13.5 NNE 10 14 1006.5 - 8.4 - Partly cloudy 10 - - - -
24/05:11pm 13.5 N 8 13 1006.5 - 8.4 - Partly cloudy 10 - - - -
24/05:00pm 13.5 NNE 8 12 1006.5 - 8.4 - Partly cloudy 4 - - - -
24/04:53pm 13.5 NNE 8 12 1006.6 - 8.4 - Partly cloudy 5 - - - -
24/04:35pm 13.6 N 8 11 1006.6 - 8.4 - Partly cloudy 10 - - - -
24/04:30pm 13.5 N 7 11 1006.6 - 8.4 - Partly cloudy 6 - - - -
24/04:06pm 13.9 NNE 10 16 1006.7 - 8.2 - Partly cloudy 4 - - - -
24/04:04pm 13.9 NNE 11 19 1006.6 - 8.2 - Partly cloudy 4 - - - -
24/04:00pm 14.1 NNE 11 19 1006.6 - 7.8 - Partly cloudy 6 - - - -
24/03:30pm 14.3 NNE 11 16 1006.9 - 7.8 - Partly cloudy 10 - - - -
24/03:00pm 14.2 NNE 10 15 1007.2 - 7.8 - Cloudy 10 - - - -
24/02:46pm 14.2 NNE 11 15 1007.1 - 7.8 - Partly cloudy 10 - - - -
24/02:36pm 14.1 NNE 11 16 1007.2 - 7.8 - Partly cloudy 10 - - - -
24/02:34pm 14.1 NE 10 16 1007.3 - 7.8 - Partly cloudy 9 - - - -
24/02:30pm 14.0 NNE 10 16 1007.3 - 7.8 - Partly cloudy 6 - - - -
24/02:24pm 13.9 NE 10 14 1007.4 - 7.6 - Partly cloudy 5 - - - -
24/02:00pm 14.0 NNE 11 16 1007.7 - 6.8 - Partly cloudy 10 - - - -
24/01:43pm 14.0 NNE 8 15 1007.9 - 6.4 - Partly cloudy 10 - - - -
24/01:30pm 13.7 NNE 8 11 1008.2 - 6.2 - Partly cloudy 9 - - - -
24/01:00pm 14.1 NNE 5 8 1008.7 - 5.8 - Partly cloudy 10 - - - -
24/12:30pm 14.4 NNE 8 12 1009.1 - 5.6 - Partly cloudy 10 - - - -
24/12:00pm 14.4 N 4 8 1009.5 - 5.6 - Cloudy 10 - - - -
24/11:30am 13.5 NE 2 5 1009.9 - 5.6 - Partly cloudy 10 - - - -
24/11:04am 12.7 NNE 3 6 1010.5 - 5.2 - Partly cloudy 10 - - - -
24/11:00am 12.5 N 4 6 1010.5 - 5.2 - Partly cloudy 10 - - - -
24/10:53am 12.2 N 4 6 1010.6 - 5.2 - Partly cloudy 4 - - - -
24/10:49am 12.3 N 4 5 1010.6 - 5.2 - Partly cloudy 3 - - - -
24/10:30am 12.3 NNE 6 11 1011.0 - 2.8 - Partly cloudy 3 - - - -
24/10:00am 12.7 NNE 2 5 1011.2 - 1.6 - Partly cloudy 4 - - - -
24/09:35am 12.8 CALM 0 4 1011.5 - 1.0 - Partly cloudy 5 - - - -
24/09:31am 12.7 NNE 2 4 1011.6 - 0.8 - Partly cloudy 8 - - - -
24/09:30am 12.7 NNE 2 4 1011.6 - 0.8 - Partly cloudy 9 - - - -
24/09:15am 12.6 CALM 0 0 1011.8 - 0.8 - Partly cloudy 5 - - - -
24/09:00am 12.6 CALM 0 0 1011.9 - 0.0 Distant precip. Cloudy 25 - - - -
24/08:30am 11.0 NW 3 7 1012.1 - 0.0 - Cloudy 10 - - - -
24/08:08am 10.5 CALM 0 4 1012.2 - 0.0 - Partly cloudy 10 - - - -
24/08:00am 10.6 WNW 4 5 1012.3 - 0.0 - Partly cloudy 10 - - - -
24/07:30am 10.3 WNW 3 6 1012.4 - 0.0 - Partly cloudy 10 - - - -
24/07:19am 9.8 WNW 3 5 1012.5 - 0.0 - Partly cloudy 10 - - - -
24/07:00am 9.4 NW 4 6 1012.6 - 0.0 - Partly cloudy 10 - - - -
24/06:30am 8.9 W 4 7 1012.5 - 0.0 - Partly cloudy 10 - - - -
24/06:00am 8.4 NW 6 8 1012.4 - 0.0 - Cloudy 10 - - - -
24/05:52am 8.5 NW 6 8 1012.3 - 0.0 - Partly cloudy 10 - - - -
24/05:47am 8.5 NNW 6 7 1012.3 - 0.0 - Partly cloudy 10 - - - -
24/05:30am 8.2 WNW 3 6 1012.3 - 0.0 - Partly cloudy 10 - - - -
24/05:00am 8.4 NW 7 8 1012.5 - 0.0 - Cloudy 10 - - - -
24/04:30am 8.2 NW 6 7 1012.6 - 0.0 - Partly cloudy 10 - - - -
24/04:20am 8.2 NW 4 6 1012.6 - 0.0 - Partly cloudy 10 - - - -
24/04:00am 8.0 NW 6 7 1012.7 - 0.0 - Partly cloudy 10 - - - -
24/03:34am 7.9 WNW 5 8 1013.0 - 0.0 - Partly cloudy 10 - - - -
24/03:30am 7.9 WNW 3 7 1013.0 - 0.0 - Partly cloudy 10 - - - -
24/03:00am 8.0 NNW 7 8 1013.3 - 0.0 - Cloudy 10 - - - -
24/02:54am 7.9 NNW 7 8 1013.3 - 0.0 - Partly cloudy 10 - - - -
24/02:38am 7.9 NNW 6 8 1013.4 - 0.0 - Partly cloudy 10 - - - -
24/02:30am 7.7 NNW 6 8 1013.6 - 0.0 - Partly cloudy 10 - - - -
24/02:00am 7.3 NNW 8 9 1013.8 - 0.0 - Partly cloudy 10 - - - -
24/01:41am 7.4 NW 6 8 1013.8 - 0.0 - Partly cloudy 10 - - - -
24/01:30am 7.9 NNW 6 8 1013.8 - 0.0 - Partly cloudy 10 - - - -
24/01:05am 7.6 W 4 5 1014.0 - 0.0 - Partly cloudy 10 - - - -
24/01:00am 7.6 WNW 4 6 1014.1 - 0.0 - Partly cloudy 7 - - - -
24/12:44am 7.8 N 5 6 1014.1 - 0.0 - Partly cloudy 5 - - - -
24/12:30am 8.0 NNW 5 5 1014.2 - 0.0 - - 10 - - - -
24/12:00am 7.9 NW 4 6 1014.7 - 0.0 - - 6 - - - -
 
Date/Time
EST
Temp
°C
Wind Pressure Rain since
9am
mm
Weather Cloud Vis
km
Sea
Height
m
Swell
Dir  Spd
kts
Gust
kts
hPa Trend Height
m
Period
s
Dir
23/11:30pm 8.5 NNW 4 6 1014.6 - 0.0 - - 10 - - - -
23/11:00pm 8.7 NNW 5 6 1015.0 - 0.0 - - 10 - - - -
23/10:30pm 8.8 WNW 4 5 1015.2 - 0.0 - - 10 - - - -
23/10:00pm 9.1 NW 4 5 1015.2 - 0.0 - - 10 - - - -
23/09:30pm 9.5 NNW 4 5 1015.3 - 0.0 - - 10 - - - -
23/09:00pm 9.8 CALM 0 0 1015.4 - 0.0 - - - - - - -
23/08:30pm 10.7 CALM 0 0 1015.4 - 0.0 - Partly cloudy 10 - - - -
23/08:00pm 10.6 CALM 0 3 1015.5 - 0.0 - Partly cloudy 10 - - - -
23/07:30pm 11.3 CALM 0 0 1015.4 - 0.0 - - 10 - - - -
23/07:00pm 11.5 CALM 0 0 1015.2 - 0.0 - Partly cloudy 10 - - - -
23/06:30pm 11.6 CALM 0 0 1015.1 - 0.0 - Partly cloudy 10 - - - -
23/06:00pm 12.1 CALM 0 0 1015.2 - 0.0 - Partly cloudy 10 - - - -
23/05:30pm 12.4 SE 3 5 1015.0 - 0.0 - - 10 - - - -
23/05:00pm 13.3 E 5 9 1014.9 - 0.0 - - 10 - - - -
23/04:30pm 14.0 E 5 6 1014.9 - 0.0 - Partly cloudy 10 - - - -
23/04:00pm 14.6 E 6 9 1014.8 - 0.0 - Partly cloudy 10 - - - -
23/03:30pm 14.9 E 7 10 1014.8 - 0.0 - - 10 - - - -
23/03:00pm 14.8 E 6 9 1015.1 - 0.0 - - 10 - - - -
23/02:30pm 15.0 ESE 6 8 1015.2 - 0.0 - - 10 - - - -
23/02:00pm 15.2 E 7 13 1015.4 - 0.0 - - 10 - - - -
23/01:30pm 15.2 E 7 14 1015.6 - 0.0 - - 10 - - - -
23/01:00pm 15.0 E 7 11 1015.9 - 0.0 - Partly cloudy 10 - - - -
23/12:30pm 15.2 ESE 6 11 1016.1 - 0.0 - - 10 - - - -
23/12:00pm 15.6 SSE 5 10 1016.5 - 0.0 - - 10 - - - -
23/11:30am 15.1 SSE 7 11 1016.7 - 0.0 - - 10 - - - -
23/11:00am 14.3 SSE 8 11 1017.0 - 0.0 - - 10 - - - -
23/10:30am 13.8 S 8 13 1017.3 - 0.0 - - 10 - - - -
23/10:00am 13.9 S 8 14 1017.5 - 0.0 - - 10 - - - -
23/09:30am 13.8 SSE 8 13 1017.6 - 0.0 - - 10 - - - -
23/09:00am 13.4 SSE 6 9 1017.8 - 0.2 - - 10 - - - -
23/08:30am 11.6 CALM 0 4 1017.8 - 0.2 - - 10 - - - -
23/08:00am 9.1 NNW 4 5 1017.7 - 0.2 - - 10 - - - -
23/07:30am 7.4 NW 5 8 1017.6 - 0.2 - - 10 - - - -
23/07:00am 6.2 NNW 5 6 1017.4 - 0.2 - - 10 - - - -
23/06:30am 5.5 NNW 5 6 1017.3 - 0.2 - - 10 - - - -
23/06:00am 5.1 WNW 2 4 1017.1 - 0.2 - - 10 - - - -
23/05:30am 5.5 NNW 4 5 1016.7 - 0.2 - - 10 - - - -
23/05:00am 5.6 CALM 0 0 1016.6 - 0.2 - - 10 - - - -
23/04:30am 5.7 NNW 2 5 1016.3 - 0.2 - - 10 - - - -
23/04:00am 5.8 NNW 4 5 1016.2 - 0.0 - - 10 - - - -
23/03:30am 5.9 NNW 5 5 1016.2 - 0.0 - Partly cloudy 10 - - - -
23/03:00am 6.2 NNW 4 5 1016.2 - 0.0 - - 10 - - - -
23/02:30am 6.0 WNW 3 4 1016.1 - 0.0 - - 7 - - - -
23/02:00am 6.6 WNW 2 5 1016.3 - 0.0 - - 10 - - - -
23/01:30am 6.6 NW 4 5 1016.5 - 0.0 - - 10 - - - -
23/01:00am 6.9 NW 1 5 1016.7 - 0.0 - - 10 - - - -
23/12:30am 6.9 NNW 4 5 1016.8 - 0.0 - - 10 - - - -
23/12:00am 7.3 WNW 4 6 1016.8 - 0.0 - - 10 - - - -
 
Date/Time
EST
Temp
°C
Wind Pressure Rain since
9am
mm
Weather Cloud Vis
km
Sea
Height
m
Swell
Dir  Spd
kts
Gust
kts
hPa Trend Height
m
Period
s
Dir
22/11:30pm 7.4 NW 4 5 1016.9 - 0.0 - Partly cloudy 10 - - - -
22/11:00pm 7.5 NNW 5 6 1016.9 - 0.0 - Partly cloudy 10 - - - -
22/10:30pm 8.0 NNW 4 7 1016.9 - 0.0 - - 10 - - - -

Other Formats:

Comma delimited format used in spreadsheet applications
http://www.bom.gov.au/fwo/IDT60701/IDT60701.95981.axf

JavaScript Object Notation format (JSON) in row-major order
http://www.bom.gov.au/fwo/IDT60701/IDT60701.95981.json